Time,TemperatureF,DewpointF,PressureIn,WindDirection,WindDirectionDegrees,WindSpeedMPH,WindSpeedGustMPH,Humidity,HourlyPrecipIn,Conditions,Clouds,dailyrainin,SoftwareType,DateUTC
2013-03-10 00:01:00,71.0,65.0,29.98,SSW,193,4.0,10.0,82,0.00,,,0.00,,2013-03-10 10:01:00,
2013-03-10 00:11:00,71.0,65.0,29.98,SSW,193,4.0,10.0,82,0.00,,,0.00,,2013-03-10 10:11:00,
2013-03-10 00:21:00,71.0,65.0,29.97,SW,218,4.0,9.0,82,0.00,,,0.00,,2013-03-10 10:21:00,
2013-03-10 00:31:00,71.0,65.0,29.97,South,189,4.0,7.0,82,0.00,,,0.00,,2013-03-10 10:31:00,
2013-03-10 00:41:00,71.0,66.0,29.96,SSW,206,3.0,10.0,83,0.00,,,0.00,,2013-03-10 10:41:00,
2013-03-10 00:52:00,71.0,66.0,29.96,SSW,206,3.0,10.0,83,0.00,,,0.00,,2013-03-10 10:52:00,
2013-03-10 01:01:00,70.0,65.0,29.96,South,179,3.0,11.0,83,0.00,,,0.00,,2013-03-10 11:01:00,
2013-03-10 01:11:00,70.0,65.0,29.96,South,179,3.0,11.0,83,0.00,,,0.00,,2013-03-10 11:11:00,
2013-03-10 01:21:00,70.0,65.0,29.96,SSW,209,5.0,9.0,84,0.00,,,0.00,,2013-03-10 11:21:00,
2013-03-10 01:31:00,70.0,65.0,29.96,SSW,211,6.0,15.0,83,0.00,,,0.00,,2013-03-10 11:31:00,
2013-03-10 01:41:00,70.0,65.0,29.96,SSW,211,6.0,15.0,83,0.00,,,0.00,,2013-03-10 11:41:00,
2013-03-10 01:52:00,70.0,65.0,29.96,SW,218,3.0,10.0,84,0.00,,,0.00,,2013-03-10 11:52:00,
2013-03-10 02:01:00,69.0,64.0,29.95,SSE,154,3.0,6.0,85,0.00,,,0.00,,2013-03-10 12:01:00,
2013-03-10 02:11:00,69.0,64.0,29.95,SSE,154,3.0,6.0,85,0.00,,,0.00,,2013-03-10 12:11:00,
2013-03-10 02:21:00,69.0,65.0,29.94,South,187,3.0,7.0,87,0.00,,,0.00,,2013-03-10 12:21:00,
2013-03-10 02:31:00,69.0,65.0,29.94,South,184,2.0,5.0,87,0.00,,,0.00,,2013-03-10 12:31:00,
2013-03-10 02:42:00,69.0,65.0,29.94,South,184,2.0,5.0,87,0.00,,,0.00,,2013-03-10 12:42:00,
2013-03-10 02:51:00,69.0,65.0,29.93,SSE,167,3.0,6.0,87,0.00,,,0.00,,2013-03-10 12:51:00,
2013-03-10 03:01:00,69.0,65.0,29.93,SW,218,3.0,8.0,87,0.00,,,0.00,,2013-03-10 13:01:00,
2013-03-10 03:11:00,69.0,65.0,29.93,SW,218,3.0,8.0,87,0.00,,,0.00,,2013-03-10 13:11:00,
2013-03-10 03:21:00,69.0,65.0,29.92,SW,224,3.0,8.0,87,0.00,,,0.00,,2013-03-10 13:21:00,
2013-03-10 03:31:00,69.0,65.0,29.92,South,187,1.0,5.0,87,0.00,,,0.00,,2013-03-10 13:31:00,
2013-03-10 03:41:00,69.0,65.0,29.92,South,187,1.0,5.0,87,0.00,,,0.00,,2013-03-10 13:41:00,
2013-03-10 03:52:00,69.0,65.0,29.92,SSW,204,1.0,4.0,87,0.00,,,0.00,,2013-03-10 13:52:00,
2013-03-10 04:01:00,68.0,64.0,29.92,SSW,212,0.0,4.0,87,0.00,,,0.00,,2013-03-10 14:01:00,
2013-03-10 04:11:00,68.0,64.0,29.92,SSW,212,0.0,4.0,87,0.00,,,0.00,,2013-03-10 14:11:00,
2013-03-10 04:21:00,69.0,65.0,29.91,SSW,193,1.0,3.0,87,0.00,,,0.00,,2013-03-10 14:21:00,
2013-03-10 04:31:00,68.0,64.0,29.91,SW,218,4.0,7.0,87,0.00,,,0.00,,2013-03-10 14:31:00,
2013-03-10 04:41:00,68.0,64.0,29.91,SW,218,4.0,7.0,87,0.00,,,0.00,,2013-03-10 14:41:00,
2013-03-10 04:52:00,68.0,64.0,29.91,SW,222,4.0,8.0,87,0.00,,,0.00,,2013-03-10 14:52:00,
2013-03-10 05:01:00,68.0,64.0,29.91,SSW,192,4.0,7.0,87,0.00,,,0.00,,2013-03-10 15:01:00,
2013-03-10 05:11:00,68.0,64.0,29.91,SSW,192,4.0,7.0,87,0.00,,,0.00,,2013-03-10 15:11:00,
2013-03-10 05:21:00,68.0,64.0,29.92,SSW,204,4.0,7.0,87,0.00,,,0.00,,2013-03-10 15:21:00,
2013-03-10 05:31:00,68.0,64.0,29.93,SSW,213,4.0,6.0,87,0.00,,,0.00,,2013-03-10 15:31:00,
2013-03-10 05:41:00,68.0,64.0,29.93,SSW,213,4.0,6.0,87,0.00,,,0.00,,2013-03-10 15:41:00,
2013-03-10 05:52:00,68.0,64.0,29.93,SW,215,2.0,7.0,87,0.00,,,0.00,,2013-03-10 15:52:00,
2013-03-10 06:01:00,67.0,63.0,29.94,SSW,209,2.0,5.0,87,0.00,,,0.00,,2013-03-10 16:01:00,
2013-03-10 06:11:00,67.0,63.0,29.94,SSW,209,2.0,5.0,87,0.00,,,0.00,,2013-03-10 16:11:00,
2013-03-10 06:21:00,67.0,63.0,29.94,SSW,211,2.0,4.0,88,0.00,,,0.00,,2013-03-10 16:21:00,
2013-03-10 06:31:00,67.0,63.0,29.95,SW,214,2.0,3.0,88,0.00,,,0.00,,2013-03-10 16:31:00,
2013-03-10 06:41:00,67.0,63.0,29.95,SW,214,2.0,3.0,88,0.00,,,0.00,,2013-03-10 16:41:00,
2013-03-10 06:52:00,67.0,64.0,29.95,SW,214,1.0,3.0,89,0.00,,,0.00,,2013-03-10 16:52:00,
2013-03-10 07:01:00,67.0,64.0,29.95,SW,214,2.0,3.0,89,0.00,,,0.00,,2013-03-10 17:01:00,
2013-03-10 07:11:00,67.0,64.0,29.95,SW,214,2.0,3.0,89,0.00,,,0.00,,2013-03-10 17:11:00,
2013-03-10 07:21:00,67.0,64.0,29.96,SW,233,3.0,4.0,90,0.00,,,0.00,,2013-03-10 17:21:00,
2013-03-10 07:31:00,67.0,64.0,29.96,SW,214,2.0,4.0,90,0.00,,,0.00,,2013-03-10 17:31:00,
2013-03-10 07:41:00,67.0,64.0,29.96,SW,214,2.0,4.0,90,0.00,,,0.00,,2013-03-10 17:41:00,
2013-03-10 07:51:00,68.0,65.0,29.96,SW,218,4.0,6.0,90,0.00,,,0.00,,2013-03-10 17:51:00,
2013-03-10 08:01:00,70.0,67.0,29.97,SSW,204,3.0,8.0,90,0.00,,,0.00,,2013-03-10 18:01:00,
2013-03-10 08:11:00,70.0,67.0,29.97,SSW,204,3.0,8.0,90,0.00,,,0.00,,2013-03-10 18:11:00,
2013-03-10 08:21:00,73.0,69.0,29.97,SE,142,2.0,5.0,87,0.00,,,0.00,,2013-03-10 18:21:00,
2013-03-10 08:31:00,75.0,70.0,29.97,SSE,156,4.0,8.0,84,0.00,,,0.00,,2013-03-10 18:31:00,
2013-03-10 08:41:00,75.0,70.0,29.97,SSE,156,4.0,8.0,84,0.00,,,0.00,,2013-03-10 18:41:00,
2013-03-10 08:52:00,77.0,70.0,29.97,South,189,3.0,12.0,79,0.00,,,0.00,,2013-03-10 18:52:00,
2013-03-10 09:01:00,78.0,69.0,29.98,SSW,202,7.0,13.0,74,0.00,,,0.00,,2013-03-10 19:01:00,
2013-03-10 09:11:00,78.0,69.0,29.98,SSW,202,7.0,13.0,74,0.00,,,0.00,,2013-03-10 19:11:00,
2013-03-10 09:21:00,78.0,69.0,29.98,SSW,202,3.0,15.0,74,0.00,,,0.00,,2013-03-10 19:21:00,
2013-03-10 09:31:00,80.0,70.0,29.98,SSW,208,4.0,12.0,72,0.00,,,0.00,,2013-03-10 19:31:00,
2013-03-10 09:41:00,80.0,70.0,29.98,SSW,208,4.0,12.0,72,0.00,,,0.00,,2013-03-10 19:41:00,
2013-03-10 09:53:00,80.0,70.0,29.98,SW,219,5.0,13.0,71,0.00,,,0.00,,2013-03-10 19:53:00,
2013-03-10 10:01:00,82.0,70.0,29.98,South,176,5.0,15.0,68,0.00,,,0.00,,2013-03-10 20:01:00,
2013-03-10 10:12:00,82.0,70.0,29.98,South,176,5.0,15.0,68,0.00,,,0.00,,2013-03-10 20:12:00,
2013-03-10 10:22:00,82.0,69.0,29.97,SW,216,8.0,21.0,64,0.00,,,0.00,,2013-03-10 20:22:00,
2013-03-10 10:32:00,81.0,67.0,29.97,South,184,12.0,21.0,62,0.00,,,0.00,,2013-03-10 20:32:00,
2013-03-10 10:42:00,81.0,67.0,29.97,South,184,12.0,21.0,62,0.00,,,0.00,,2013-03-10 20:42:00,
2013-03-10 10:52:00,82.0,68.0,29.97,SW,233,6.0,18.0,62,0.00,,,0.00,,2013-03-10 20:52:00,
2013-03-10 11:01:00,84.0,68.0,29.96,SSE,161,11.0,21.0,58,0.00,,,0.00,,2013-03-10 21:01:00,
2013-03-10 11:12:00,84.0,68.0,29.96,SSE,161,11.0,21.0,58,0.00,,,0.00,,2013-03-10 21:12:00,
2013-03-10 11:22:00,82.0,67.0,29.95,SSE,161,9.0,16.0,60,0.00,,,0.00,,2013-03-10 21:22:00,
2013-03-10 11:42:00,82.0,65.0,29.94,SSE,164,14.0,25.0,57,0.00,,,0.00,,2013-03-10 21:42:00,
2013-03-10 11:52:00,83.0,67.0,29.93,SSE,150,10.0,28.0,58,0.00,,,0.00,,2013-03-10 21:52:00,
2013-03-10 12:02:00,82.0,66.0,29.93,ESE,123,14.0,30.0,59,0.00,,,0.00,,2013-03-10 22:02:00,
2013-03-10 12:11:00,82.0,66.0,29.93,ESE,123,14.0,30.0,59,0.00,,,0.00,,2013-03-10 22:11:00,
2013-03-10 12:21:00,82.0,65.0,29.93,SSE,157,19.0,26.0,57,0.00,,,0.00,,2013-03-10 22:21:00,
2013-03-10 12:32:00,83.0,65.0,29.92,SSW,210,9.0,22.0,55,0.00,,,0.00,,2013-03-10 22:32:00,
2013-03-10 12:42:00,83.0,65.0,29.92,SSW,210,9.0,22.0,55,0.00,,,0.00,,2013-03-10 22:42:00,
2013-03-10 12:52:00,83.0,64.0,29.92,SSE,160,19.0,28.0,53,0.00,,,0.00,,2013-03-10 22:52:00,
2013-03-10 13:02:00,82.0,65.0,29.92,South,177,12.0,28.0,56,0.00,,,0.00,,2013-03-10 23:02:00,
2013-03-10 13:11:00,84.0,65.0,29.91,SSW,194,14.0,26.0,53,0.00,,,0.00,,2013-03-10 23:11:00,
2013-03-10 13:22:00,84.0,65.0,29.91,SSW,194,14.0,26.0,53,0.00,,,0.00,,2013-03-10 23:22:00,
2013-03-10 13:31:00,84.0,67.0,29.91,SE,145,13.0,23.0,56,0.00,,,0.00,,2013-03-10 23:31:00,
2013-03-10 13:43:00,84.0,67.0,29.91,SE,145,13.0,23.0,56,0.00,,,0.00,,2013-03-10 23:43:00,
2013-03-10 13:52:00,82.0,65.0,29.90,SE,134,11.0,22.0,57,0.00,,,0.00,,2013-03-10 23:52:00,
2013-03-10 14:01:00,82.0,66.0,29.89,South,172,13.0,21.0,59,0.00,,,0.00,,2013-03-11 00:01:00,
2013-03-10 14:12:00,82.0,66.0,29.89,South,172,13.0,21.0,59,0.00,,,0.00,,2013-03-11 00:12:00,
2013-03-10 14:22:00,83.0,67.0,29.89,SSE,158,12.0,22.0,58,0.00,,,0.00,,2013-03-11 00:22:00,
2013-03-10 14:32:00,82.0,66.0,29.88,SE,137,15.0,24.0,59,0.00,,,0.00,,2013-03-11 00:32:00,
2013-03-10 14:42:00,82.0,66.0,29.88,SE,137,15.0,24.0,59,0.00,,,0.00,,2013-03-11 00:42:00,
2013-03-10 15:02:00,82.0,68.0,29.88,SSW,201,13.0,26.0,62,0.00,,,0.00,,2013-03-11 01:02:00,
2013-03-10 15:12:00,82.0,68.0,29.88,SSW,201,13.0,26.0,62,0.00,,,0.00,,2013-03-11 01:12:00,
2013-03-10 15:22:00,81.0,67.0,29.88,SE,146,12.0,19.0,62,0.00,,,0.00,,2013-03-11 01:22:00,
2013-03-10 15:32:00,83.0,67.0,29.88,South,186,11.0,21.0,59,0.00,,,0.00,,2013-03-11 01:32:00,
2013-03-10 15:42:00,83.0,67.0,29.88,South,186,11.0,21.0,59,0.00,,,0.00,,2013-03-11 01:42:00,
2013-03-10 15:53:00,81.0,67.0,29.88,SW,233,10.0,17.0,63,0.00,,,0.00,,2013-03-11 01:53:00,
2013-03-10 16:02:00,80.0,67.0,29.88,South,170,11.0,17.0,65,0.00,,,0.00,,2013-03-11 02:02:00,
2013-03-10 16:12:00,80.0,67.0,29.88,South,170,11.0,17.0,65,0.00,,,0.00,,2013-03-11 02:12:00,
2013-03-10 16:22:00,80.0,68.0,29.88,SSW,198,9.0,16.0,66,0.00,,,0.00,,2013-03-11 02:22:00,
2013-03-10 16:32:00,81.0,68.0,29.88,South,181,7.0,16.0,65,0.00,,,0.00,,2013-03-11 02:32:00,
2013-03-10 16:42:00,81.0,68.0,29.88,South,181,7.0,16.0,65,0.00,,,0.00,,2013-03-11 02:42:00,
2013-03-10 16:52:00,80.0,68.0,29.89,SSE,164,6.0,17.0,66,0.00,,,0.00,,2013-03-11 02:52:00,
2013-03-10 17:02:00,79.0,68.0,29.89,South,169,5.0,9.0,68,0.00,,,0.00,,2013-03-11 03:02:00,
2013-03-10 17:11:00,79.0,68.0,29.89,South,169,5.0,9.0,68,0.00,,,0.00,,2013-03-11 03:11:00,
2013-03-10 17:21:00,79.0,67.0,29.90,SW,218,5.0,13.0,67,0.00,,,0.00,,2013-03-11 03:21:00,
2013-03-10 17:31:00,79.0,66.0,29.91,WSW,247,4.0,13.0,65,0.00,,,0.00,,2013-03-11 03:31:00,
2013-03-10 17:42:00,79.0,66.0,29.91,WSW,247,4.0,13.0,65,0.00,,,0.00,,2013-03-11 03:42:00,
2013-03-10 17:52:00,79.0,67.0,29.92,SSW,211,4.0,7.0,66,0.00,,,0.00,,2013-03-11 03:52:00,
2013-03-10 18:01:00,78.0,68.0,29.92,North,353,2.0,7.0,72,0.00,,,0.00,,2013-03-11 04:01:00,
2013-03-10 18:11:00,78.0,68.0,29.92,North,353,2.0,7.0,72,0.00,,,0.00,,2013-03-11 04:11:00,
2013-03-10 18:22:00,76.0,68.0,29.93,East,85,2.0,4.0,76,0.00,,,0.00,,2013-03-11 04:22:00,
2013-03-10 18:32:00,76.0,68.0,29.93,NNW,341,3.0,6.0,77,0.00,,,0.00,,2013-03-11 04:32:00,
2013-03-10 18:42:00,76.0,68.0,29.93,NNW,341,3.0,6.0,77,0.00,,,0.00,,2013-03-11 04:42:00,
2013-03-10 18:53:00,76.0,69.0,29.93,NNW,333,1.0,5.0,78,0.00,,,0.00,,2013-03-11 04:53:00,
2013-03-10 19:11:00,75.0,68.0,29.94,North,357,2.0,4.0,79,0.00,,,0.00,,2013-03-11 05:11:00,
2013-03-10 19:22:00,75.0,68.0,29.95,North,351,0.0,3.0,80,0.00,,,0.00,,2013-03-11 05:22:00,
2013-03-10 19:31:00,75.0,68.0,29.95,North,351,0.0,1.0,80,0.00,,,0.00,,2013-03-11 05:31:00,
2013-03-10 19:42:00,75.0,68.0,29.95,North,351,0.0,1.0,80,0.00,,,0.00,,2013-03-11 05:42:00,
2013-03-10 19:52:00,74.0,68.0,29.96,North,351,1.0,2.0,81,0.00,,,0.00,,2013-03-11 05:52:00,
2013-03-10 20:01:00,74.0,68.0,29.96,SSE,153,3.0,3.0,81,0.00,,,0.00,,2013-03-11 06:01:00,
2013-03-10 20:11:00,74.0,68.0,29.96,SSE,153,3.0,3.0,81,0.00,,,0.00,,2013-03-11 06:11:00,
2013-03-10 20:22:00,74.0,68.0,29.97,SE,144,3.0,6.0,83,0.00,,,0.00,,2013-03-11 06:22:00,
2013-03-10 20:32:00,73.0,67.0,29.97,SW,218,1.0,7.0,82,0.00,,,0.00,,2013-03-11 06:32:00,
2013-03-10 20:42:00,73.0,67.0,29.97,SW,218,1.0,7.0,82,0.00,,,0.00,,2013-03-11 06:42:00,
2013-03-10 20:52:00,73.0,67.0,29.98,WSW,237,1.0,3.0,82,0.00,,,0.00,,2013-03-11 06:52:00,
2013-03-10 21:01:00,72.0,67.0,29.99,WSW,251,0.0,3.0,83,0.00,,,0.00,,2013-03-11 07:01:00,
2013-03-10 21:11:00,72.0,67.0,29.99,WSW,251,0.0,3.0,83,0.00,,,0.00,,2013-03-11 07:11:00,
2013-03-10 21:21:00,72.0,67.0,29.99,WSW,247,1.0,2.0,84,0.00,,,0.00,,2013-03-11 07:21:00,
2013-03-10 21:32:00,71.0,66.0,30.00,SW,226,1.0,3.0,85,0.00,,,0.00,,2013-03-11 07:32:00,
2013-03-10 21:42:00,71.0,66.0,30.00,SW,226,1.0,3.0,85,0.00,,,0.00,,2013-03-11 07:42:00,
2013-03-10 21:52:00,71.0,67.0,30.01,SSW,213,2.0,4.0,86,0.00,,,0.00,,2013-03-11 07:52:00,
2013-03-10 22:02:00,70.0,66.0,30.01,SW,231,1.0,2.0,86,0.00,,,0.00,,2013-03-11 08:02:00,
2013-03-10 22:11:00,70.0,66.0,30.01,SW,231,1.0,2.0,86,0.00,,,0.00,,2013-03-11 08:11:00,
2013-03-10 22:22:00,69.0,65.0,30.02,SW,231,2.0,4.0,86,0.00,,,0.00,,2013-03-11 08:22:00,
2013-03-10 22:32:00,68.0,64.0,30.02,SW,227,2.0,4.0,86,0.00,,,0.00,,2013-03-11 08:32:00,
2013-03-10 22:42:00,68.0,64.0,30.02,SW,227,2.0,4.0,86,0.00,,,0.00,,2013-03-11 08:42:00,
2013-03-10 22:52:00,68.0,64.0,30.02,SW,228,2.0,5.0,86,0.00,,,0.00,,2013-03-11 08:52:00,
2013-03-10 23:01:00,68.0,64.0,30.02,SW,216,2.0,4.0,86,0.00,,,0.00,,2013-03-11 09:01:00,
2013-03-10 23:11:00,68.0,64.0,30.02,SW,216,2.0,4.0,86,0.00,,,0.00,,2013-03-11 09:11:00,
2013-03-10 23:22:00,67.0,63.0,30.02,WSW,248,2.0,5.0,86,0.00,,,0.00,,2013-03-11 09:22:00,
2013-03-10 23:31:00,67.0,63.0,30.02,SW,222,2.0,4.0,87,0.00,,,0.00,,2013-03-11 09:31:00,
2013-03-10 23:42:00,67.0,63.0,30.02,SW,222,2.0,4.0,87,0.00,,,0.00,,2013-03-11 09:42:00,
2013-03-10 23:52:00,67.0,63.0,30.02,WSW,249,2.0,5.0,87,0.00,,,0.00,,2013-03-11 09:52:00,